Time;durP1;ratioP1;P1;durP2;ratioP2;P2;SDS_P1;SDS_P2;PMS_P1;PMS_P2;Temp;Humidity;BMP_temperature;BMP_pressure;BME280_temperature;BME280_humidity;BME280_pressure;Samples;Min_cycle;Max_cycle;Signal;HPM_P1;HPM_P2
2024/03/21 00:02:00;;;;;;;;;;;;;;;12.39;nan;101394.75;5191100;22;19923;-68
2024/03/21 00:04:02;;;;;;;;;;;;;;;12.37;nan;101391.38;5164409;23;19930;-69
2024/03/21 00:06:04;;;;;;;;;;;;;;;12.35;nan;101386.13;5191960;22;19927;-66
2024/03/21 00:08:08;;;;;;;;;;;;;;;12.35;nan;101390.69;5191291;22;19933;-67
2024/03/21 00:10:09;;;;;;;;;;;;;;;12.32;nan;101391.91;5190983;22;19926;-68
2024/03/21 00:12:11;;;;;;;;;;;;;;;12.31;nan;101383.94;5190546;22;19923;-69
2024/03/21 00:14:15;;;;;;;;;;;;;;;12.28;nan;101382.41;5191208;22;19925;-68
2024/03/21 00:16:17;;;;;;;;;;;;;;;12.27;nan;101383.41;5163319;23;19923;-68
2024/03/21 00:18:19;;;;;;;;;;;;;;;12.25;nan;101382.75;5191509;22;19923;-68
2024/03/21 00:20:21;;;;;;;;;;;;;;;12.24;nan;101386.47;5191399;22;19925;-69
2024/03/21 00:22:22;;;;;;;;;;;;;;;12.22;nan;101383.94;5191379;22;20459;-68
2024/03/21 00:24:25;;;;;;;;;;;;;;;12.20;nan;101379.72;5191062;22;19919;-69
2024/03/21 00:26:27;;;;;;;;;;;;;;;12.19;nan;101383.44;5191373;22;19920;-69
2024/03/21 00:28:29;;;;;;;;;;;;;;;12.16;nan;101373.81;5191941;22;20221;-67
2024/03/21 00:30:30;;;;;;;;;;;;;;;12.16;nan;101373.81;5190488;22;20347;-67
2024/03/21 00:32:32;;;;;;;;;;;;;;;12.14;nan;101375.81;5190783;22;19927;-67
2024/03/21 00:34:34;;;;;;;;;;;;;;;12.14;nan;101370.41;5191452;22;19925;-67
2024/03/21 00:36:36;;;;;;;;;;;;;;;12.13;nan;101371.44;5191525;22;20365;-68
2024/03/21 00:38:37;;;;;;;;;;;;;;;12.13;nan;101378.72;5191443;22;20266;-68
2024/03/21 00:40:41;;;;;;;;;;;;;;;12.11;nan;101370.75;5190266;22;20357;-67
2024/03/21 00:42:42;;;;;;;;;;;;;;;12.11;nan;101378.03;5190854;22;19923;-68
2024/03/21 00:44:44;;;;;;;;;;;;;;;12.10;nan;101365.50;5191322;22;20457;-68
2024/03/21 00:46:45;;;;;;;;;;;;;;;12.08;nan;101369.25;5191121;22;20361;-68
2024/03/21 00:48:48;;;;;;;;;;;;;;;12.06;nan;101360.44;5191836;22;19923;-67
2024/03/21 00:50:49;;;;;;;;;;;;;;;12.05;nan;101366.91;5191169;22;19920;-69
2024/03/21 00:52:51;;;;;;;;;;;;;;;12.05;nan;101366.03;5190450;22;20258;-68
2024/03/21 00:54:52;;;;;;;;;;;;;;;12.04;nan;101361.66;5164126;23;20330;-68
2024/03/21 00:56:56;;;;;;;;;;;;;;;12.02;nan;101369.06;5191667;22;20121;-68
2024/03/21 00:58:58;;;;;;;;;;;;;;;12.01;nan;101373.66;5191290;22;19926;-68
2024/03/21 01:01:00;;;;;;;;;;;;;;;11.99;nan;101364.00;5190553;22;19930;-68
2024/03/21 01:03:02;;;;;;;;;;;;;;;11.99;nan;101367.56;5190609;22;19986;-68
2024/03/21 01:05:06;;;;;;;;;;;;;;;11.99;nan;101370.28;5191851;22;19919;-67
2024/03/21 01:07:08;;;;;;;;;;;;;;;11.97;nan;101361.47;5191389;22;19919;-68
2024/03/21 01:09:11;;;;;;;;;;;;;;;11.98;nan;101365.03;5191067;22;19953;-67
2024/03/21 01:11:12;;;;;;;;;;;;;;;11.96;nan;101357.09;5190223;22;19925;-68
2024/03/21 01:13:16;;;;;;;;;;;;;;;11.95;nan;101360.78;5191524;22;19930;-68
2024/03/21 01:15:18;;;;;;;;;;;;;;;11.94;nan;101358.25;5191093;22;19930;-67
2024/03/21 01:17:20;;;;;;;;;;;;;;;11.94;nan;101358.25;5190997;22;19945;-67
2024/03/21 01:19:22;;;;;;;;;;;;;;;11.92;nan;101353.03;5190999;22;19927;-67
2024/03/21 01:21:24;;;;;;;;;;;;;;;11.91;nan;101354.00;5190841;22;20254;-68
2024/03/21 01:23:25;;;;;;;;;;;;;;;11.90;nan;101352.31;5190520;22;20243;-67
2024/03/21 01:25:28;;;;;;;;;;;;;;;11.90;nan;101347.75;5190877;22;20343;-67
2024/03/21 01:27:29;;;;;;;;;;;;;;;11.89;nan;101348.75;5191439;22;20348;-68
2024/03/21 01:29:33;;;;;;;;;;;;;;;11.90;nan;101349.63;5189711;22;20332;-71
2024/03/21 01:31:34;;;;;;;;;;;;;;;11.91;nan;101343.16;5190448;22;19919;-70
2024/03/21 01:33:36;;;;;;;;;;;;;;;11.91;nan;101345.88;5191558;22;19923;-68
2024/03/21 01:35:38;;;;;;;;;;;;;;;11.90;nan;101341.50;5191218;22;19923;-68
2024/03/21 01:37:40;;;;;;;;;;;;;;;11.88;nan;101336.25;5190996;22;19924;-70
2024/03/21 01:39:41;;;;;;;;;;;;;;;11.89;nan;101337.09;5190354;22;19924;-68
2024/03/21 01:41:43;;;;;;;;;;;;;;;11.89;nan;101340.63;5190975;22;19967;-69
2024/03/21 01:43:44;;;;;;;;;;;;;;;11.88;nan;101329.97;5191018;22;19923;-67
2024/03/21 01:45:52;;;;;;;;;;;;;;;11.87;nan;101326.44;5192143;22;19919;-69
2024/03/21 01:47:53;;;;;;;;;;;;;;;11.87;nan;101323.72;5192519;22;19928;-68
2024/03/21 01:49:55;;;;;;;;;;;;;;;11.86;nan;101324.72;5192321;22;19919;-69
2024/03/21 01:51:56;;;;;;;;;;;;;;;11.86;nan;101313.06;5192614;22;19923;-68
2024/03/21 01:53:58;;;;;;;;;;;;;;;11.85;nan;101319.53;5192350;22;19919;-70
2024/03/21 01:55:59;;;;;;;;;;;;;;;11.84;nan;101312.41;5192329;22;19922;-69
2024/03/21 01:58:01;;;;;;;;;;;;;;;11.84;nan;101321.34;5193124;22;19938;-68
2024/03/21 02:00:03;;;;;;;;;;;;;;;11.84;nan;101317.81;5162367;23;19930;-68
2024/03/21 02:02:08;;;;;;;;;;;;;;;11.82;nan;101315.28;5191784;22;19933;-69
2024/03/21 02:04:10;;;;;;;;;;;;;;;11.82;nan;101315.28;5192251;22;20365;-69
2024/03/21 02:06:12;;;;;;;;;;;;;;;11.83;nan;101318.81;5192730;22;19925;-68
2024/03/21 02:08:13;;;;;;;;;;;;;;;11.81;nan;101310.88;5192720;22;19930;-68
2024/03/21 02:10:15;;;;;;;;;;;;;;;11.80;nan;101314.63;5191240;22;19923;-68
2024/03/21 02:12:31;;;;;;;;;;;;;;;11.80;nan;101311.91;5192205;22;19929;-68
2024/03/21 02:14:34;;;;;;;;;;;;;;;11.80;nan;101311.91;5192017;22;19927;-68
2024/03/21 02:16:35;;;;;;;;;;;;;;;11.80;nan;101313.75;5192800;22;19923;-67
2024/03/21 02:18:39;;;;;;;;;;;;;;;11.79;nan;101302.09;5192135;22;19925;-68
2024/03/21 02:20:40;;;;;;;;;;;;;;;11.77;nan;101295.16;5192156;22;19942;-69
2024/03/21 02:22:42;;;;;;;;;;;;;;;11.77;nan;101305.97;5192115;22;19929;-68
2024/03/21 02:24:45;;;;;;;;;;;;;;;11.76;nan;101299.72;5192223;22;19925;-68
2024/03/21 02:26:46;;;;;;;;;;;;;;;11.74;nan;101299.06;5191356;22;19919;-68
2024/03/21 02:28:49;;;;;;;;;;;;;;;11.73;nan;101308.19;5192444;22;19919;-67
2024/03/21 02:30:52;;;;;;;;;;;;;;;11.70;nan;101303.94;5191392;22;19929;-68
2024/03/21 02:32:54;;;;;;;;;;;;;;;11.70;nan;101297.72;5191453;22;19923;-68
2024/03/21 02:34:55;;;;;;;;;;;;;;;11.70;nan;101300.41;5192533;22;20250;-67
2024/03/21 02:36:57;;;;;;;;;;;;;;;11.68;nan;101297.88;5192387;22;19923;-69
2024/03/21 02:39:00;;;;;;;;;;;;;;;11.68;nan;101302.44;5191617;22;20339;-70
2024/03/21 02:41:02;;;;;;;;;;;;;;;11.67;nan;101304.28;5191219;22;19928;-68
2024/03/21 02:43:03;;;;;;;;;;;;;;;11.68;nan;101302.44;5191257;22;19933;-67
2024/03/21 02:45:06;;;;;;;;;;;;;;;11.68;nan;101300.56;5192372;22;19919;-68
2024/03/21 02:47:07;;;;;;;;;;;;;;;11.68;nan;101302.44;5192280;22;20336;-67
2024/03/21 02:49:09;;;;;;;;;;;;;;;11.69;nan;101298.72;5191728;22;19925;-67
2024/03/21 02:51:10;;;;;;;;;;;;;;;11.68;nan;101299.75;5191578;22;20254;-68
2024/03/21 02:53:12;;;;;;;;;;;;;;;11.66;nan;101299.91;5192355;22;19926;-69
2024/03/21 02:55:15;;;;;;;;;;;;;;;11.66;nan;101296.34;5191820;22;19930;-68
2024/03/21 02:57:17;;;;;;;;;;;;;;;11.63;nan;101294.84;5192089;22;20254;-67
2024/03/21 02:59:19;;;;;;;;;;;;;;;11.63;nan;101294.84;5191608;22;19933;-68
2024/03/21 03:01:21;;;;;;;;;;;;;;;11.62;nan;101292.31;5191542;22;19930;-68
2024/03/21 03:03:22;;;;;;;;;;;;;;;11.60;nan;101291.63;5191456;22;19926;-69
2024/03/21 03:05:24;;;;;;;;;;;;;;;11.59;nan;101290.78;5192098;22;19953;-68
2024/03/21 03:07:25;;;;;;;;;;;;;;;11.59;nan;101289.94;5192069;22;19923;-68
2024/03/21 03:09:27;;;;;;;;;;;;;;;11.57;nan;101294.66;5191723;22;20267;-68
2024/03/21 03:11:30;;;;;;;;;;;;;;;11.56;nan;101293.00;5190411;22;19923;-67
2024/03/21 03:13:32;;;;;;;;;;;;;;;11.53;nan;101295.00;5191254;22;19926;-68
2024/03/21 03:15:33;;;;;;;;;;;;;;;11.53;nan;101292.28;5191735;22;20134;-67
2024/03/21 03:17:35;;;;;;;;;;;;;;;11.51;nan;101291.63;5191601;22;19923;-70
2024/03/21 03:19:36;;;;;;;;;;;;;;;11.52;nan;101298.75;5190579;22;19923;-68
2024/03/21 03:21:38;;;;;;;;;;;;;;;11.52;nan;101296.03;5192221;22;19919;-67
2024/03/21 03:23:40;;;;;;;;;;;;;;;11.51;nan;101294.34;5138899;23;20427;-68
2024/03/21 03:25:42;;;;;;;;;;;;;;;11.48;nan;101294.66;5190236;22;19923;-67
2024/03/21 03:27:45;;;;;;;;;;;;;;;11.48;nan;101297.38;5191278;22;19919;-70
2024/03/21 03:29:47;;;;;;;;;;;;;;;11.48;nan;101293.84;5190905;22;19919;-70
2024/03/21 03:31:48;;;;;;;;;;;;;;;11.46;nan;101291.28;5190851;22;19927;-67
2024/03/21 03:36:10;;;;;;;;;;;;;;;11.43;nan;101297.03;5192009;22;19926;-67
2024/03/21 03:38:13;;;;;;;;;;;;;;;11.41;nan;101293.69;5191555;22;19923;-68
2024/03/21 03:40:15;;;;;;;;;;;;;;;11.40;nan;101293.84;5191058;22;19919;-67
2024/03/21 03:42:16;;;;;;;;;;;;;;;11.40;nan;101294.69;5190965;22;19930;-67
2024/03/21 03:44:20;;;;;;;;;;;;;;;11.38;nan;101294.00;5191456;22;19930;-68
2024/03/21 03:46:21;;;;;;;;;;;;;;;11.38;nan;101293.13;5191640;22;19923;-68
2024/03/21 03:48:23;;;;;;;;;;;;;;;11.36;nan;101290.59;5191297;22;19926;-68
2024/03/21 03:50:24;;;;;;;;;;;;;;;11.35;nan;101297.88;5190905;22;20354;-68
2024/03/21 03:52:27;;;;;;;;;;;;;;;11.33;nan;101299.91;5191721;22;19923;-68
2024/03/21 03:54:28;;;;;;;;;;;;;;;11.34;nan;101303.47;5191902;22;19923;-68
2024/03/21 03:56:30;;;;;;;;;;;;;;;11.32;nan;101300.09;5191543;22;19923;-69
2024/03/21 03:58:31;;;;;;;;;;;;;;;11.31;nan;101299.22;5191097;22;19922;-69
2024/03/21 04:00:35;;;;;;;;;;;;;;;11.31;nan;101303.78;5191361;22;19919;-68
2024/03/21 04:02:37;;;;;;;;;;;;;;;11.31;nan;101310.03;5191369;22;19919;-68
2024/03/21 04:04:40;;;;;;;;;;;;;;;11.33;nan;101299.06;5191266;22;19919;-67
2024/03/21 04:06:41;;;;;;;;;;;;;;;11.31;nan;101290.28;5191231;22;19929;-69
2024/03/21 04:08:43;;;;;;;;;;;;;;;11.28;nan;101296.84;5191588;22;20246;-68
2024/03/21 04:10:44;;;;;;;;;;;;;;;11.25;nan;101296.34;5190263;22;19919;-68
2024/03/21 04:12:46;;;;;;;;;;;;;;;11.25;nan;101296.34;5190824;22;19937;-67
2024/03/21 04:14:51;;;;;;;;;;;;;;;11.23;nan;101293.81;5191805;22;19919;-68
2024/03/21 04:16:55;;;;;;;;;;;;;;;11.20;nan;101293.31;5191986;22;19920;-68
2024/03/21 04:18:56;;;;;;;;;;;;;;;11.19;nan;101295.19;5190542;22;20419;-68
2024/03/21 04:20:57;;;;;;;;;;;;;;;11.17;nan;101287.25;5190979;22;19919;-67
2024/03/21 04:23:00;;;;;;;;;;;;;;;11.14;nan;101295.69;5191193;22;19925;-68
2024/03/21 04:25:02;;;;;;;;;;;;;;;11.13;nan;101288.56;5192061;22;19933;-70
2024/03/21 04:27:04;;;;;;;;;;;;;;;11.12;nan;101289.56;5191282;22;19923;-68
2024/03/21 04:29:05;;;;;;;;;;;;;;;11.12;nan;101288.75;5191650;22;19929;-68
2024/03/21 04:31:07;;;;;;;;;;;;;;;11.12;nan;101288.75;5190760;22;19919;-68
2024/03/21 04:33:10;;;;;;;;;;;;;;;11.11;nan;101281.63;5191376;22;19926;-68
2024/03/21 04:35:12;;;;;;;;;;;;;;;11.10;nan;101280.81;5190922;22;19926;-69
2024/03/21 04:37:15;;;;;;;;;;;;;;;11.09;nan;101280.97;5191334;22;19930;-68
2024/03/21 04:39:17;;;;;;;;;;;;;;;11.08;nan;101280.13;5190923;22;19934;-70
2024/03/21 04:41:19;;;;;;;;;;;;;;;11.08;nan;101290.06;5190488;22;20228;-69
2024/03/21 04:43:24;;;;;;;;;;;;;;;11.07;nan;101278.44;5190559;22;19930;-71
2024/03/21 04:45:25;;;;;;;;;;;;;;;11.08;nan;101279.25;5188367;22;19926;-69
2024/03/21 04:47:27;;;;;;;;;;;;;;;11.07;nan;101281.13;5191370;22;19927;-68
2024/03/21 04:49:29;;;;;;;;;;;;;;;11.05;nan;101280.47;5190799;22;19923;-68
2024/03/21 04:51:32;;;;;;;;;;;;;;;11.06;nan;101278.59;5189682;22;20350;-70
2024/03/21 04:53:33;;;;;;;;;;;;;;;11.06;nan;101284.84;5190337;22;20345;-69
2024/03/21 04:55:36;;;;;;;;;;;;;;;11.05;nan;101285.88;5191482;22;19919;-67
2024/03/21 04:57:37;;;;;;;;;;;;;;;11.04;nan;101284.16;5189975;22;19930;-68
2024/03/21 04:59:40;;;;;;;;;;;;;;;11.04;nan;101284.16;5190493;22;19920;-68
2024/03/21 05:01:41;;;;;;;;;;;;;;;11.03;nan;101295.97;5190631;22;19923;-68
2024/03/21 05:03:43;;;;;;;;;;;;;;;11.03;nan;101300.56;5191259;22;20339;-69
2024/03/21 05:05:46;;;;;;;;;;;;;;;11.04;nan;101289.56;5190349;22;19923;-69
2024/03/21 05:07:48;;;;;;;;;;;;;;;11.03;nan;101295.16;5191003;22;19923;-70
2024/03/21 05:09:49;;;;;;;;;;;;;;;11.01;nan;101287.22;5190444;22;19919;-69
2024/03/21 05:11:51;;;;;;;;;;;;;;;10.99;nan;101290.06;5190452;22;19923;-69
2024/03/21 05:13:53;;;;;;;;;;;;;;;10.98;nan;101285.66;5190510;22;19923;-69
2024/03/21 05:15:54;;;;;;;;;;;;;;;10.98;nan;101284.84;5191570;22;19926;-69
2024/03/21 05:17:56;;;;;;;;;;;;;;;10.97;nan;101281.28;5191300;22;19919;-67
2024/03/21 05:19:57;;;;;;;;;;;;;;;10.97;nan;101277.72;5190504;22;19919;-68
2024/03/21 05:22:00;;;;;;;;;;;;;;;10.96;nan;101271.50;5192562;22;20224;-69
2024/03/21 05:24:02;;;;;;;;;;;;;;;10.94;nan;101272.66;5192536;22;19923;-68
2024/03/21 05:26:04;;;;;;;;;;;;;;;10.95;nan;101263.53;5193029;22;19919;-68
2024/03/21 05:28:05;;;;;;;;;;;;;;;10.94;nan;101260.00;5193286;22;20326;-69
2024/03/21 05:30:08;;;;;;;;;;;;;;;10.93;nan;101257.47;5191738;22;19919;-68
2024/03/21 05:32:09;;;;;;;;;;;;;;;10.94;nan;101260.00;5191654;22;19919;-69
2024/03/21 05:34:11;;;;;;;;;;;;;;;10.93;nan;101257.47;5192959;22;20262;-69
2024/03/21 05:36:12;;;;;;;;;;;;;;;10.91;nan;101254.94;5192806;22;19977;-68
2024/03/21 05:38:16;;;;;;;;;;;;;;;10.91;nan;101252.22;5165621;23;19924;-69
2024/03/21 05:40:17;;;;;;;;;;;;;;;10.91;nan;101249.53;5165358;23;19933;-68
2024/03/21 05:42:19;;;;;;;;;;;;;;;10.87;nan;101248.16;5192629;22;19919;-68
2024/03/21 05:44:20;;;;;;;;;;;;;;;10.88;nan;101255.25;5191846;22;19923;-70
2024/03/21 05:46:26;;;;;;;;;;;;;;;10.87;nan;101256.28;5192488;22;19919;-68
2024/03/21 05:48:27;;;;;;;;;;;;;;;10.85;nan;101254.75;5164806;23;19966;-70
2024/03/21 05:50:30;;;;;;;;;;;;;;;10.83;nan;101249.53;5162813;23;19938;-70
2024/03/21 05:52:31;;;;;;;;;;;;;;;10.82;nan;101245.97;5191888;22;19919;-68
2024/03/21 05:54:34;;;;;;;;;;;;;;;10.81;nan;101249.69;5191459;22;19923;-68
2024/03/21 05:56:35;;;;;;;;;;;;;;;10.80;nan;101242.59;5191234;22;19947;-68
2024/03/21 05:58:38;;;;;;;;;;;;;;;10.81;nan;101247.00;5189985;22;19927;-69
2024/03/21 06:00:40;;;;;;;;;;;;;;;10.81;nan;101247.00;5191536;22;20339;-70
2024/03/21 06:02:42;;;;;;;;;;;;;;;10.81;nan;101251.53;5191338;22;19923;-70
2024/03/21 06:04:44;;;;;;;;;;;;;;;10.80;nan;101248.00;5192099;22;19919;-69
2024/03/21 06:06:46;;;;;;;;;;;;;;;10.80;nan;101245.28;5192476;22;20364;-68
2024/03/21 06:08:47;;;;;;;;;;;;;;;10.79;nan;101251.69;5193107;22;19923;-67
2024/03/21 06:10:50;;;;;;;;;;;;;;;10.79;nan;101256.25;5190135;22;19919;-70
2024/03/21 06:12:52;;;;;;;;;;;;;;;10.78;nan;101244.63;5190249;22;19930;-64
2024/03/21 06:14:54;;;;;;;;;;;;;;;10.80;nan;101253.41;5163108;23;19920;-69
2024/03/21 06:16:55;;;;;;;;;;;;;;;10.81;nan;101254.22;5190717;22;19919;-69
2024/03/21 06:18:57;;;;;;;;;;;;;;;10.81;nan;101256.94;5188955;22;19933;-69
2024/03/21 06:20:58;;;;;;;;;;;;;;;10.81;nan;101255.09;5190500;22;19926;-69
2024/03/21 06:23:00;;;;;;;;;;;;;;;10.84;nan;101258.47;5190745;22;19953;-69
2024/03/21 06:25:02;;;;;;;;;;;;;;;10.83;nan;101254.94;5190628;22;19926;-68
2024/03/21 06:27:05;;;;;;;;;;;;;;;10.84;nan;101253.91;5189163;22;19929;-69
2024/03/21 06:29:07;;;;;;;;;;;;;;;10.86;nan;101257.31;5191060;22;19919;-68
2024/03/21 06:31:09;;;;;;;;;;;;;;;10.87;nan;101255.44;5187279;22;20115;-68
2024/03/21 06:33:10;;;;;;;;;;;;;;;10.86;nan;101257.31;5189487;22;19926;-69
2024/03/21 06:35:13;;;;;;;;;;;;;;;10.87;nan;101252.72;5187938;22;20159;-70
2024/03/21 06:37:15;;;;;;;;;;;;;;;10.87;nan;101252.72;5188029;22;19925;-69
2024/03/21 06:39:19;;;;;;;;;;;;;;;10.89;nan;101259.63;5188430;22;19920;-69
2024/03/21 06:41:20;;;;;;;;;;;;;;;10.88;nan;101252.56;5187646;22;19929;-69
2024/03/21 06:43:24;;;;;;;;;;;;;;;10.89;nan;101256.09;5189376;22;19923;-69
2024/03/21 06:45:25;;;;;;;;;;;;;;;10.90;nan;101258.63;5189072;22;19919;-70
2024/03/21 06:47:27;;;;;;;;;;;;;;;10.92;nan;101261.19;5190489;22;20522;-69
2024/03/21 06:49:28;;;;;;;;;;;;;;;10.93;nan;101266.41;5189758;22;20347;-69
2024/03/21 06:51:30;;;;;;;;;;;;;;;10.95;nan;101261.69;5189294;22;20345;-69
2024/03/21 06:53:32;;;;;;;;;;;;;;;10.95;nan;101266.25;5189408;22;19924;-69
2024/03/21 06:55:34;;;;;;;;;;;;;;;10.97;nan;101275.03;5189698;22;19923;-69
2024/03/21 06:57:35;;;;;;;;;;;;;;;10.95;nan;101267.09;5189482;22;19919;-69
2024/03/21 06:59:38;;;;;;;;;;;;;;;10.98;nan;101271.31;5188654;22;19923;-69
2024/03/21 07:01:40;;;;;;;;;;;;;;;10.97;nan;101275.88;5188466;22;20332;-68
2024/03/21 07:03:42;;;;;;;;;;;;;;;10.99;nan;101281.13;5189620;22;19923;-68
2024/03/21 07:05:43;;;;;;;;;;;;;;;10.99;nan;101284.66;5190038;22;19924;-69
2024/03/21 07:07:45;;;;;;;;;;;;;;;11.00;nan;101283.66;5189006;22;20262;-69
2024/03/21 07:10:12;;;;;;;;;;;;;;;11.03;nan;101290.56;5189405;22;20231;-69
2024/03/21 07:13:17;;;;;;;;;;;;;;;11.03;nan;101306.78;5132648;23;20046;-68
2024/03/21 07:15:45;;;;;;;;;;;;;;;11.04;nan;101303.09;5138940;23;19924;-69
2024/03/21 07:17:48;;;;;;;;;;;;;;;11.04;nan;101307.66;5137791;23;19920;-69
2024/03/21 07:20:14;;;;;;;;;;;;;;;11.04;nan;101315.78;5138755;23;20127;-69
2024/03/21 07:22:43;;;;;;;;;;;;;;;11.00;nan;101329.63;5140325;23;20339;-70
2024/03/21 07:25:10;;;;;;;;;;;;;;;11.00;nan;101344.97;5140745;23;19920;-70
2024/03/21 07:27:38;;;;;;;;;;;;;;;11.00;nan;101339.56;5140999;23;19920;-69
2024/03/21 07:29:39;;;;;;;;;;;;;;;11.00;nan;101339.56;5140666;23;19931;-70
2024/03/21 07:32:08;;;;;;;;;;;;;;;11.00;nan;101347.66;5141544;23;19919;-70
2024/03/21 07:34:35;;;;;;;;;;;;;;;11.00;nan;101344.97;5141743;23;19919;-70
2024/03/21 07:37:03;;;;;;;;;;;;;;;11.01;nan;101346.66;5141072;23;19928;-70
2024/03/21 07:39:04;;;;;;;;;;;;;;;10.99;nan;101346.84;5140436;23;19928;-70
2024/03/21 07:41:32;;;;;;;;;;;;;;;11.01;nan;101352.06;5140098;23;19923;-70
2024/03/21 07:43:33;;;;;;;;;;;;;;;11.03;nan;101358.16;5140198;23;19924;-70
2024/03/21 07:46:01;;;;;;;;;;;;;;;11.03;nan;101365.44;5140428;23;19923;-70
2024/03/21 07:48:04;;;;;;;;;;;;;;;11.04;nan;101362.56;5140524;23;20350;-70
2024/03/21 07:50:06;;;;;;;;;;;;;;;11.06;nan;101362.41;5139817;23;19942;-70
2024/03/21 07:52:08;;;;;;;;;;;;;;;11.07;nan;101361.41;5140048;23;19934;-70
2024/03/21 07:54:12;;;;;;;;;;;;;;;11.09;nan;101367.47;5139908;23;19924;-70
2024/03/21 07:56:14;;;;;;;;;;;;;;;11.09;nan;101362.91;5140738;23;19919;-70
2024/03/21 07:58:16;;;;;;;;;;;;;;;11.12;nan;101376.09;5140647;23;20336;-70
2024/03/21 08:00:18;;;;;;;;;;;;;;;11.14;nan;101384.03;5140372;23;19926;-70
2024/03/21 08:02:26;;;;;;;;;;;;;;;11.13;nan;101383.19;5140311;23;20263;-69
2024/03/21 08:04:53;;;;;;;;;;;;;;;11.16;nan;101399.09;5140281;23;19923;-70
2024/03/21 08:07:00;;;;;;;;;;;;;;;11.18;nan;101415.97;5139964;23;19924;-69
2024/03/21 08:09:05;;;;;;;;;;;;;;;11.19;nan;101403.34;5140178;23;19930;-69
2024/03/21 08:11:07;;;;;;;;;;;;;;;11.19;nan;101416.84;5157754;22;19945;-70
2024/03/21 08:13:09;;;;;;;;;;;;;;;11.18;nan;101415.97;5190482;22;19929;-69
2024/03/21 08:15:11;;;;;;;;;;;;;;;11.21;nan;101412.13;5190677;22;19923;-69
2024/03/21 08:17:12;;;;;;;;;;;;;;;11.21;nan;101417.53;5191255;22;19919;-69
2024/03/21 08:19:44;;;;;;;;;;;;;;;11.22;nan;101404.84;5190823;22;20286;-70
2024/03/21 08:22:12;;;;;;;;;;;;;;;11.22;nan;101419.19;5190508;22;19923;-70
2024/03/21 08:24:40;;;;;;;;;;;;;;;11.23;nan;101406.53;5190129;22;19927;-69
2024/03/21 08:27:06;;;;;;;;;;;;;;;11.22;nan;101405.69;5190940;22;19919;-69
2024/03/21 08:29:33;;;;;;;;;;;;;;;11.20;nan;101398.75;5189809;22;19919;-70
2024/03/21 08:31:34;;;;;;;;;;;;;;;11.23;nan;101407.38;5190521;22;20387;-69
2024/03/21 08:34:01;;;;;;;;;;;;;;;11.23;nan;101403.84;5191187;22;19923;-70
2024/03/21 08:36:27;;;;;;;;;;;;;;;11.23;nan;101411.94;5190769;22;19919;-70
2024/03/21 08:38:55;;;;;;;;;;;;;;;11.24;nan;101408.22;5190973;22;20439;-70
2024/03/21 08:41:21;;;;;;;;;;;;;;;11.26;nan;101425.16;5190396;22;19923;-69
2024/03/21 08:43:50;;;;;;;;;;;;;;;11.27;nan;101421.41;5190353;22;20296;-70
2024/03/21 08:46:16;;;;;;;;;;;;;;;11.27;nan;101429.53;5190705;22;19919;-70
2024/03/21 08:48:43;;;;;;;;;;;;;;;11.29;nan;101420.25;5190706;22;19923;-70
2024/03/21 08:50:45;;;;;;;;;;;;;;;11.31;nan;101429.03;5190333;22;19923;-70
2024/03/21 08:53:13;;;;;;;;;;;;;;;11.32;nan;101436.13;5190653;22;20343;-70
2024/03/21 08:55:16;;;;;;;;;;;;;;;11.33;nan;101436.97;5192027;22;19919;-70
2024/03/21 08:57:20;;;;;;;;;;;;;;;11.33;nan;101442.38;5192470;22;20251;-70
2024/03/21 08:59:21;;;;;;;;;;;;;;;11.34;nan;101438.69;5191889;22;19923;-70
2024/03/21 09:01:24;;;;;;;;;;;;;;;11.34;nan;101438.69;5192170;22;19929;-70
2024/03/21 09:03:25;;;;;;;;;;;;;;;11.35;nan;101426.88;5192147;22;20669;-70
2024/03/21 09:05:52;;;;;;;;;;;;;;;11.34;nan;101425.16;5192308;22;19923;-70
2024/03/21 09:07:53;;;;;;;;;;;;;;;11.33;nan;101427.03;5191563;22;19930;-70
2024/03/21 09:10:21;;;;;;;;;;;;;;;11.35;nan;101411.47;5192122;22;19919;-69
2024/03/21 09:12:22;;;;;;;;;;;;;;;11.37;nan;101424.81;5188608;22;19923;-69
2024/03/21 09:14:50;;;;;;;;;;;;;;;11.37;nan;101416.72;5189649;22;19923;-69
2024/03/21 09:17:16;;;;;;;;;;;;;;;11.39;nan;101422.78;5192297;22;19923;-69
2024/03/21 09:19:43;;;;;;;;;;;;;;;11.40;nan;101421.78;5191536;22;19919;-69
2024/03/21 09:22:09;;;;;;;;;;;;;;;11.41;nan;101417.22;5192086;22;20355;-69
2024/03/21 09:24:11;;;;;;;;;;;;;;;11.41;nan;101425.34;5164850;23;19987;-69
2024/03/21 09:26:14;;;;;;;;;;;;;;;11.42;nan;101419.75;5192066;22;20238;-69
2024/03/21 09:28:16;;;;;;;;;;;;;;;11.41;nan;101418.09;5191449;22;19925;-69
2024/03/21 09:30:17;;;;;;;;;;;;;;;11.43;nan;101416.06;5192012;22;19923;-69
2024/03/21 09:32:20;;;;;;;;;;;;;;;11.44;nan;101416.88;5192020;22;19919;-69
2024/03/21 09:34:21;;;;;;;;;;;;;;;11.44;nan;101414.19;5164699;23;19974;-69
2024/03/21 09:36:23;;;;;;;;;;;;;;;11.44;nan;101400.66;5192088;22;19923;-69
2024/03/21 09:38:25;;;;;;;;;;;;;;;11.45;nan;101402.38;5191403;22;19920;-69
2024/03/21 09:40:30;;;;;;;;;;;;;;;11.46;nan;101398.66;5191877;22;19923;-69
2024/03/21 09:42:33;;;;;;;;;;;;;;;11.46;nan;101399.50;5191897;22;19923;-69
2024/03/21 09:44:35;;;;;;;;;;;;;;;11.47;nan;101397.63;5190787;22;19925;-69
2024/03/21 09:46:38;;;;;;;;;;;;;;;11.48;nan;101385.81;5191796;22;20258;-69
2024/03/21 09:48:40;;;;;;;;;;;;;;;11.49;nan;101384.78;5191915;22;20244;-69
2024/03/21 09:50:42;;;;;;;;;;;;;;;11.50;nan;101376.50;5191600;22;20369;-69
2024/03/21 09:52:44;;;;;;;;;;;;;;;11.50;nan;101368.41;5191881;22;19968;-69
2024/03/21 09:54:45;;;;;;;;;;;;;;;11.52;nan;101363.66;5191883;22;19923;-69
2024/03/21 09:56:51;;;;;;;;;;;;;;;11.52;nan;101360.97;5165077;23;19923;-69
2024/03/21 09:59:19;;;;;;;;;;;;;;;11.56;nan;101347.94;5190684;22;19923;-70
2024/03/21 10:01:22;;;;;;;;;;;;;;;11.58;nan;101339.66;5191341;22;19934;-70
2024/03/21 10:03:49;;;;;;;;;;;;;;;11.59;nan;101328.66;5191951;22;19919;-69
2024/03/21 10:05:51;;;;;;;;;;;;;;;11.60;nan;101330.34;5191031;22;20349;-69
2024/03/21 10:07:52;;;;;;;;;;;;;;;11.60;nan;101314.13;5190095;22;19923;-70
2024/03/21 10:09:54;;;;;;;;;;;;;;;11.64;nan;101310.03;5191714;22;19930;-70
2024/03/21 10:11:55;;;;;;;;;;;;;;;11.67;nan;101309.69;5191224;22;19919;-70
2024/03/21 10:14:00;;;;;;;;;;;;;;;11.69;nan;101323.94;5191851;22;19929;-70
2024/03/21 10:16:02;;;;;;;;;;;;;;;11.72;nan;101312.75;5192334;22;19930;-70
2024/03/21 10:18:11;;;;;;;;;;;;;;;11.76;nan;101312.44;5191636;22;19923;-70
2024/03/21 10:20:13;;;;;;;;;;;;;;;11.78;nan;101304.97;5190582;22;19919;-70
2024/03/21 10:22:14;;;;;;;;;;;;;;;11.81;nan;101305.47;5191514;22;19926;-69
2024/03/21 10:24:16;;;;;;;;;;;;;;;11.85;nan;101298.69;5191764;22;19919;-69
2024/03/21 10:26:18;;;;;;;;;;;;;;;11.88;nan;101297.50;5190159;22;20290;-69
2024/03/21 10:28:20;;;;;;;;;;;;;;;11.92;nan;101289.91;5191435;22;19926;-69
2024/03/21 10:30:23;;;;;;;;;;;;;;;11.96;nan;101281.28;5191730;22;19923;-69
2024/03/21 10:32:27;;;;;;;;;;;;;;;12.01;nan;101272.66;5191525;22;19925;-70
2024/03/21 10:34:28;;;;;;;;;;;;;;;12.06;nan;101273.81;5191043;22;19929;-69
2024/03/21 10:36:30;;;;;;;;;;;;;;;12.12;nan;101279.56;5191091;22;19923;-70
2024/03/21 10:38:31;;;;;;;;;;;;;;;12.15;nan;101280.03;5190910;22;19923;-70
2024/03/21 10:40:33;;;;;;;;;;;;;;;12.21;nan;101287.47;5191447;22;20354;-69
2024/03/21 10:42:36;;;;;;;;;;;;;;;12.25;nan;101299.63;5191184;22;19923;-69
2024/03/21 10:44:38;;;;;;;;;;;;;;;12.33;nan;101320.44;5191568;22;19919;-69
2024/03/21 10:46:39;;;;;;;;;;;;;;;12.38;nan;101318.06;5191743;22;19942;-69
2024/03/21 10:48:43;;;;;;;;;;;;;;;12.43;nan;101322.97;5191649;22;19923;-70
2024/03/21 10:50:44;;;;;;;;;;;;;;;12.47;nan;101318.84;5190760;22;19919;-70
2024/03/21 10:52:48;;;;;;;;;;;;;;;12.54;nan;101316.28;5190361;22;19934;-69
2024/03/21 10:54:50;;;;;;;;;;;;;;;12.59;nan;101316.63;5191757;22;19941;-70
2024/03/21 10:56:57;;;;;;;;;;;;;;;12.65;nan;101326.75;5191251;22;19927;-69
2024/03/21 10:58:58;;;;;;;;;;;;;;;12.71;nan;101320.63;5190839;22;19923;-70
2024/03/21 11:01:03;;;;;;;;;;;;;;;12.77;nan;101329.91;5191529;22;20335;-69
2024/03/21 11:03:04;;;;;;;;;;;;;;;12.83;nan;101345.47;5191536;22;19919;-69